sensor_id;sensor_type;location;lat;lon;timestamp;temperature;humidity
3416;DHT22;1721;51.238;9.562;2023-08-08T00:02:02;13.00;99.10
3416;DHT22;1721;51.238;9.562;2023-08-08T00:04:27;13.00;99.10
3416;DHT22;1721;51.238;9.562;2023-08-08T00:06:53;13.00;99.10
3416;DHT22;1721;51.238;9.562;2023-08-08T00:09:18;12.90;99.00
3416;DHT22;1721;51.238;9.562;2023-08-08T00:11:44;13.00;99.20
3416;DHT22;1721;51.238;9.562;2023-08-08T00:14:09;13.00;99.10
3416;DHT22;1721;51.238;9.562;2023-08-08T00:16:35;13.00;99.00
3416;DHT22;1721;51.238;9.562;2023-08-08T00:19:00;13.00;99.00
3416;DHT22;1721;51.238;9.562;2023-08-08T00:21:26;13.00;99.30
3416;DHT22;1721;51.238;9.562;2023-08-08T00:23:51;13.00;99.00
3416;DHT22;1721;51.238;9.562;2023-08-08T00:26:17;13.10;99.10
3416;DHT22;1721;51.238;9.562;2023-08-08T00:28:42;13.10;99.10
3416;DHT22;1721;51.238;9.562;2023-08-08T00:31:08;13.10;99.10
3416;DHT22;1721;51.238;9.562;2023-08-08T00:33:33;13.10;99.10
3416;DHT22;1721;51.238;9.562;2023-08-08T00:35:59;13.10;99.10
3416;DHT22;1721;51.238;9.562;2023-08-08T00:38:25;13.10;99.10
3416;DHT22;1721;51.238;9.562;2023-08-08T00:40:50;13.10;99.10
3416;DHT22;1721;51.238;9.562;2023-08-08T00:43:16;13.20;99.20
3416;DHT22;1721;51.238;9.562;2023-08-08T00:45:42;13.10;99.20
3416;DHT22;1721;51.238;9.562;2023-08-08T00:48:08;13.20;99.30
3416;DHT22;1721;51.238;9.562;2023-08-08T00:50:36;13.20;99.40
3416;DHT22;1721;51.238;9.562;2023-08-08T00:53:05;13.20;99.50
3416;DHT22;1721;51.238;9.562;2023-08-08T00:55:31;13.20;99.50
3416;DHT22;1721;51.238;9.562;2023-08-08T00:57:57;13.20;99.50
3416;DHT22;1721;51.238;9.562;2023-08-08T01:00:22;13.20;99.60
3416;DHT22;1721;51.238;9.562;2023-08-08T01:02:48;13.20;99.90
3416;DHT22;1721;51.238;9.562;2023-08-08T01:05:13;13.20;99.90
3416;DHT22;1721;51.238;9.562;2023-08-08T01:07:44;13.30;99.90
3416;DHT22;1721;51.238;9.562;2023-08-08T01:10:26;13.30;99.90
3416;DHT22;1721;51.238;9.562;2023-08-08T01:12:56;13.30;99.90
3416;DHT22;1721;51.238;9.562;2023-08-08T01:15:24;13.30;99.90
3416;DHT22;1721;51.238;9.562;2023-08-08T01:17:51;13.30;99.90
3416;DHT22;1721;51.238;9.562;2023-08-08T01:20:18;13.20;99.90
3416;DHT22;1721;51.238;9.562;2023-08-08T01:25:29;13.30;99.90
3416;DHT22;1721;51.238;9.562;2023-08-08T01:27:55;13.30;99.90
3416;DHT22;1721;51.238;9.562;2023-08-08T01:30:20;13.40;99.90
3416;DHT22;1721;51.238;9.562;2023-08-08T01:32:46;13.40;99.90
3416;DHT22;1721;51.238;9.562;2023-08-08T01:35:12;13.40;99.90
3416;DHT22;1721;51.238;9.562;2023-08-08T01:37:44;13.50;99.90
3416;DHT22;1721;51.238;9.562;2023-08-08T01:40:13;13.50;99.90
3416;DHT22;1721;51.238;9.562;2023-08-08T01:42:44;13.40;99.90
3416;DHT22;1721;51.238;9.562;2023-08-08T01:45:10;13.50;99.90
3416;DHT22;1721;51.238;9.562;2023-08-08T01:47:36;13.60;99.90
3416;DHT22;1721;51.238;9.562;2023-08-08T01:50:02;13.80;99.90
3416;DHT22;1721;51.238;9.562;2023-08-08T01:52:28;13.90;99.90
3416;DHT22;1721;51.238;9.562;2023-08-08T01:54:53;13.90;99.90
3416;DHT22;1721;51.238;9.562;2023-08-08T01:57:19;14.00;99.90
3416;DHT22;1721;51.238;9.562;2023-08-08T01:59:47;13.90;99.90
3416;DHT22;1721;51.238;9.562;2023-08-08T02:02:13;14.00;99.90
3416;DHT22;1721;51.238;9.562;2023-08-08T02:04:39;14.10;99.90
3416;DHT22;1721;51.238;9.562;2023-08-08T02:07:04;14.20;99.90
3416;DHT22;1721;51.238;9.562;2023-08-08T02:09:30;14.20;99.90
3416;DHT22;1721;51.238;9.562;2023-08-08T02:11:55;14.30;99.90
3416;DHT22;1721;51.238;9.562;2023-08-08T02:14:21;14.30;99.90
3416;DHT22;1721;51.238;9.562;2023-08-08T02:16:46;14.30;99.90
3416;DHT22;1721;51.238;9.562;2023-08-08T02:19:12;14.40;99.90
3416;DHT22;1721;51.238;9.562;2023-08-08T02:21:37;14.20;99.90
3416;DHT22;1721;51.238;9.562;2023-08-08T02:24:03;14.20;99.90
3416;DHT22;1721;51.238;9.562;2023-08-08T02:26:29;14.00;99.90
3416;DHT22;1721;51.238;9.562;2023-08-08T02:28:54;14.20;99.90
3416;DHT22;1721;51.238;9.562;2023-08-08T02:31:20;14.20;99.90
3416;DHT22;1721;51.238;9.562;2023-08-08T02:33:49;14.20;99.90
3416;DHT22;1721;51.238;9.562;2023-08-08T02:36:16;14.20;99.90
3416;DHT22;1721;51.238;9.562;2023-08-08T02:38:41;14.40;99.90
3416;DHT22;1721;51.238;9.562;2023-08-08T02:41:07;14.50;99.90
3416;DHT22;1721;51.238;9.562;2023-08-08T02:43:32;14.50;99.90
3416;DHT22;1721;51.238;9.562;2023-08-08T02:45:58;14.40;99.90
3416;DHT22;1721;51.238;9.562;2023-08-08T02:48:23;14.30;99.90
3416;DHT22;1721;51.238;9.562;2023-08-08T02:50:49;14.20;99.90
3416;DHT22;1721;51.238;9.562;2023-08-08T02:53:14;14.10;99.90
3416;DHT22;1721;51.238;9.562;2023-08-08T02:55:40;14.20;99.90
3416;DHT22;1721;51.238;9.562;2023-08-08T02:58:05;14.40;99.90
3416;DHT22;1721;51.238;9.562;2023-08-08T03:00:31;14.50;99.90
3416;DHT22;1721;51.238;9.562;2023-08-08T03:02:56;14.60;99.90
3416;DHT22;1721;51.238;9.562;2023-08-08T03:05:22;14.50;99.90
3416;DHT22;1721;51.238;9.562;2023-08-08T03:07:47;14.40;99.90
3416;DHT22;1721;51.238;9.562;2023-08-08T03:10:13;14.40;99.90
3416;DHT22;1721;51.238;9.562;2023-08-08T03:12:38;14.50;99.90
3416;DHT22;1721;51.238;9.562;2023-08-08T03:15:05;14.40;99.90
3416;DHT22;1721;51.238;9.562;2023-08-08T03:17:31;14.40;99.90
3416;DHT22;1721;51.238;9.562;2023-08-08T03:19:56;14.50;99.90
3416;DHT22;1721;51.238;9.562;2023-08-08T03:22:22;14.60;99.90
3416;DHT22;1721;51.238;9.562;2023-08-08T03:24:47;14.70;99.90
3416;DHT22;1721;51.238;9.562;2023-08-08T03:27:13;14.70;99.90
3416;DHT22;1721;51.238;9.562;2023-08-08T03:29:38;14.70;99.90
3416;DHT22;1721;51.238;9.562;2023-08-08T03:32:04;14.70;99.90
3416;DHT22;1721;51.238;9.562;2023-08-08T03:34:30;14.70;99.90
3416;DHT22;1721;51.238;9.562;2023-08-08T03:36:56;14.60;99.90
3416;DHT22;1721;51.238;9.562;2023-08-08T03:39:22;14.50;99.90
3416;DHT22;1721;51.238;9.562;2023-08-08T03:41:47;14.60;99.90
3416;DHT22;1721;51.238;9.562;2023-08-08T03:44:13;14.40;99.90
3416;DHT22;1721;51.238;9.562;2023-08-08T03:46:38;14.30;99.90
3416;DHT22;1721;51.238;9.562;2023-08-08T03:49:04;14.30;99.90
3416;DHT22;1721;51.238;9.562;2023-08-08T03:51:29;14.30;99.90
3416;DHT22;1721;51.238;9.562;2023-08-08T03:53:55;14.20;99.90
3416;DHT22;1721;51.238;9.562;2023-08-08T03:56:20;14.10;99.90
3416;DHT22;1721;51.238;9.562;2023-08-08T03:58:46;14.20;99.90
3416;DHT22;1721;51.238;9.562;2023-08-08T04:01:11;14.20;99.90
3416;DHT22;1721;51.238;9.562;2023-08-08T04:03:37;14.20;99.90
3416;DHT22;1721;51.238;9.562;2023-08-08T04:06:03;14.30;99.90
3416;DHT22;1721;51.238;9.562;2023-08-08T04:08:28;14.40;99.90
3416;DHT22;1721;51.238;9.562;2023-08-08T04:10:54;14.50;99.90
3416;DHT22;1721;51.238;9.562;2023-08-08T04:13:20;14.50;99.90
3416;DHT22;1721;51.238;9.562;2023-08-08T04:15:45;14.50;99.90
3416;DHT22;1721;51.238;9.562;2023-08-08T04:18:11;14.50;99.90
3416;DHT22;1721;51.238;9.562;2023-08-08T04:20:36;14.50;99.90
3416;DHT22;1721;51.238;9.562;2023-08-08T04:23:02;14.40;99.90
3416;DHT22;1721;51.238;9.562;2023-08-08T04:25:28;14.50;99.90
3416;DHT22;1721;51.238;9.562;2023-08-08T04:27:54;14.50;99.90
3416;DHT22;1721;51.238;9.562;2023-08-08T04:30:19;14.50;99.90
3416;DHT22;1721;51.238;9.562;2023-08-08T04:32:45;14.40;99.90
3416;DHT22;1721;51.238;9.562;2023-08-08T04:35:10;14.20;99.90
3416;DHT22;1721;51.238;9.562;2023-08-08T04:37:36;14.20;99.90
3416;DHT22;1721;51.238;9.562;2023-08-08T04:40:02;14.00;99.90
3416;DHT22;1721;51.238;9.562;2023-08-08T04:42:28;14.10;99.90
3416;DHT22;1721;51.238;9.562;2023-08-08T04:44:54;14.20;99.90
3416;DHT22;1721;51.238;9.562;2023-08-08T04:47:19;14.10;99.90
3416;DHT22;1721;51.238;9.562;2023-08-08T04:49:45;14.00;99.90
3416;DHT22;1721;51.238;9.562;2023-08-08T04:52:10;14.00;99.90
3416;DHT22;1721;51.238;9.562;2023-08-08T04:54:36;14.00;99.90
3416;DHT22;1721;51.238;9.562;2023-08-08T04:57:02;14.10;99.90
3416;DHT22;1721;51.238;9.562;2023-08-08T04:59:27;14.20;99.90
3416;DHT22;1721;51.238;9.562;2023-08-08T05:01:53;14.20;99.90
3416;DHT22;1721;51.238;9.562;2023-08-08T05:04:18;14.20;99.90
3416;DHT22;1721;51.238;9.562;2023-08-08T05:06:44;14.30;99.90
3416;DHT22;1721;51.238;9.562;2023-08-08T05:09:09;14.30;99.90
3416;DHT22;1721;51.238;9.562;2023-08-08T05:11:35;14.30;99.90
3416;DHT22;1721;51.238;9.562;2023-08-08T05:14:01;14.40;99.90
3416;DHT22;1721;51.238;9.562;2023-08-08T05:16:27;14.50;99.90
3416;DHT22;1721;51.238;9.562;2023-08-08T05:18:53;14.60;99.90
3416;DHT22;1721;51.238;9.562;2023-08-08T05:21:19;14.70;99.90
3416;DHT22;1721;51.238;9.562;2023-08-08T05:23:45;14.70;99.90
3416;DHT22;1721;51.238;9.562;2023-08-08T05:26:10;14.70;99.90
3416;DHT22;1721;51.238;9.562;2023-08-08T05:28:36;14.70;99.90
3416;DHT22;1721;51.238;9.562;2023-08-08T05:31:02;14.80;99.90
3416;DHT22;1721;51.238;9.562;2023-08-08T05:33:27;14.80;99.90
3416;DHT22;1721;51.238;9.562;2023-08-08T05:35:53;15.00;99.90
3416;DHT22;1721;51.238;9.562;2023-08-08T05:38:18;15.00;99.90
3416;DHT22;1721;51.238;9.562;2023-08-08T05:40:44;14.80;99.90
3416;DHT22;1721;51.238;9.562;2023-08-08T05:43:09;14.70;99.90
3416;DHT22;1721;51.238;9.562;2023-08-08T05:45:35;14.70;99.90
3416;DHT22;1721;51.238;9.562;2023-08-08T05:48:00;14.80;99.90
3416;DHT22;1721;51.238;9.562;2023-08-08T05:50:27;14.90;99.90
3416;DHT22;1721;51.238;9.562;2023-08-08T05:52:53;14.90;99.90
3416;DHT22;1721;51.238;9.562;2023-08-08T05:55:19;15.00;99.90
3416;DHT22;1721;51.238;9.562;2023-08-08T05:57:44;15.00;99.90
3416;DHT22;1721;51.238;9.562;2023-08-08T06:00:10;15.00;99.90
3416;DHT22;1721;51.238;9.562;2023-08-08T06:02:37;15.00;99.90
3416;DHT22;1721;51.238;9.562;2023-08-08T06:05:03;14.90;99.90
3416;DHT22;1721;51.238;9.562;2023-08-08T06:07:28;14.90;99.90
3416;DHT22;1721;51.238;9.562;2023-08-08T06:09:54;14.90;99.90
3416;DHT22;1721;51.238;9.562;2023-08-08T06:12:19;14.80;99.90
3416;DHT22;1721;51.238;9.562;2023-08-08T06:14:45;14.80;99.90
3416;DHT22;1721;51.238;9.562;2023-08-08T06:17:11;14.80;99.90
3416;DHT22;1721;51.238;9.562;2023-08-08T06:19:36;14.70;99.90
3416;DHT22;1721;51.238;9.562;2023-08-08T06:22:02;14.70;99.90
3416;DHT22;1721;51.238;9.562;2023-08-08T06:24:28;14.70;99.90
3416;DHT22;1721;51.238;9.562;2023-08-08T06:26:54;14.90;99.90
3416;DHT22;1721;51.238;9.562;2023-08-08T06:29:19;14.90;99.90
3416;DHT22;1721;51.238;9.562;2023-08-08T06:31:45;14.90;99.90
3416;DHT22;1721;51.238;9.562;2023-08-08T06:34:10;14.90;99.90
3416;DHT22;1721;51.238;9.562;2023-08-08T06:36:36;14.90;99.90
3416;DHT22;1721;51.238;9.562;2023-08-08T06:39:02;14.80;99.90
3416;DHT22;1721;51.238;9.562;2023-08-08T06:41:27;14.80;99.90
3416;DHT22;1721;51.238;9.562;2023-08-08T06:43:53;14.90;99.90
3416;DHT22;1721;51.238;9.562;2023-08-08T06:46:18;14.90;99.90
3416;DHT22;1721;51.238;9.562;2023-08-08T06:48:46;14.90;99.90
3416;DHT22;1721;51.238;9.562;2023-08-08T06:51:12;14.90;99.90
3416;DHT22;1721;51.238;9.562;2023-08-08T06:53:37;15.00;99.90
3416;DHT22;1721;51.238;9.562;2023-08-08T06:56:03;15.10;99.90
3416;DHT22;1721;51.238;9.562;2023-08-08T06:58:29;15.20;99.90
3416;DHT22;1721;51.238;9.562;2023-08-08T07:00:54;15.20;99.90
3416;DHT22;1721;51.238;9.562;2023-08-08T07:03:20;15.40;99.90
3416;DHT22;1721;51.238;9.562;2023-08-08T07:05:46;15.50;99.90
3416;DHT22;1721;51.238;9.562;2023-08-08T07:08:12;15.40;99.90
3416;DHT22;1721;51.238;9.562;2023-08-08T07:10:38;15.30;99.90
3416;DHT22;1721;51.238;9.562;2023-08-08T07:13:04;15.30;99.90
3416;DHT22;1721;51.238;9.562;2023-08-08T07:15:29;15.20;99.90
3416;DHT22;1721;51.238;9.562;2023-08-08T07:17:56;15.30;99.90
3416;DHT22;1721;51.238;9.562;2023-08-08T07:20:21;15.40;99.90
3416;DHT22;1721;51.238;9.562;2023-08-08T07:22:48;15.60;99.90
3416;DHT22;1721;51.238;9.562;2023-08-08T07:25:13;15.90;99.90
3416;DHT22;1721;51.238;9.562;2023-08-08T07:27:39;16.00;99.90
3416;DHT22;1721;51.238;9.562;2023-08-08T07:30:05;16.40;99.90
3416;DHT22;1721;51.238;9.562;2023-08-08T07:32:33;16.60;99.90
3416;DHT22;1721;51.238;9.562;2023-08-08T07:34:58;16.90;99.90
3416;DHT22;1721;51.238;9.562;2023-08-08T07:37:26;17.20;99.90
3416;DHT22;1721;51.238;9.562;2023-08-08T07:39:52;17.20;99.90
3416;DHT22;1721;51.238;9.562;2023-08-08T07:42:17;17.30;99.90
3416;DHT22;1721;51.238;9.562;2023-08-08T07:44:43;17.30;99.80
3416;DHT22;1721;51.238;9.562;2023-08-08T07:47:09;17.30;99.90
3416;DHT22;1721;51.238;9.562;2023-08-08T07:49:34;17.50;99.30
3416;DHT22;1721;51.238;9.562;2023-08-08T07:52:00;17.50;99.90
3416;DHT22;1721;51.238;9.562;2023-08-08T07:54:25;17.70;99.60
3416;DHT22;1721;51.238;9.562;2023-08-08T07:56:51;17.80;99.80
3416;DHT22;1721;51.238;9.562;2023-08-08T07:59:16;18.10;99.90
3416;DHT22;1721;51.238;9.562;2023-08-08T08:01:42;18.20;99.40
3416;DHT22;1721;51.238;9.562;2023-08-08T08:04:07;18.30;99.00
3416;DHT22;1721;51.238;9.562;2023-08-08T08:06:33;18.30;98.60
3416;DHT22;1721;51.238;9.562;2023-08-08T08:08:59;18.50;98.90
3416;DHT22;1721;51.238;9.562;2023-08-08T08:11:24;18.70;98.50
3416;DHT22;1721;51.238;9.562;2023-08-08T08:13:50;18.60;97.80
3416;DHT22;1721;51.238;9.562;2023-08-08T08:16:15;18.60;97.80
3416;DHT22;1721;51.238;9.562;2023-08-08T08:18:41;18.60;97.80
3416;DHT22;1721;51.238;9.562;2023-08-08T08:21:07;18.60;97.50
3416;DHT22;1721;51.238;9.562;2023-08-08T08:23:32;18.60;97.90
3416;DHT22;1721;51.238;9.562;2023-08-08T08:25:58;18.70;98.00
3416;DHT22;1721;51.238;9.562;2023-08-08T08:28:25;18.60;97.70
3416;DHT22;1721;51.238;9.562;2023-08-08T08:30:50;18.60;97.50
3416;DHT22;1721;51.238;9.562;2023-08-08T08:33:16;18.60;97.50
3416;DHT22;1721;51.238;9.562;2023-08-08T08:35:41;18.60;97.70
3416;DHT22;1721;51.238;9.562;2023-08-08T08:38:07;18.80;98.20
3416;DHT22;1721;51.238;9.562;2023-08-08T08:40:37;18.80;97.40
3416;DHT22;1721;51.238;9.562;2023-08-08T08:43:03;18.70;96.80
3416;DHT22;1721;51.238;9.562;2023-08-08T08:45:30;18.70;97.40
3416;DHT22;1721;51.238;9.562;2023-08-08T08:47:56;18.90;97.40
3416;DHT22;1721;51.238;9.562;2023-08-08T08:50:23;19.00;96.90
3416;DHT22;1721;51.238;9.562;2023-08-08T08:52:50;18.90;96.60
3416;DHT22;1721;51.238;9.562;2023-08-08T08:55:16;18.90;96.60
3416;DHT22;1721;51.238;9.562;2023-08-08T08:57:42;19.00;96.10
3416;DHT22;1721;51.238;9.562;2023-08-08T09:00:10;19.20;96.50
3416;DHT22;1721;51.238;9.562;2023-08-08T09:02:36;19.20;96.00
3416;DHT22;1721;51.238;9.562;2023-08-08T09:05:03;19.00;96.10
3416;DHT22;1721;51.238;9.562;2023-08-08T09:07:31;19.00;96.60
3416;DHT22;1721;51.238;9.562;2023-08-08T09:09:57;19.20;97.00
3416;DHT22;1721;51.238;9.562;2023-08-08T09:12:24;19.30;96.20
3416;DHT22;1721;51.238;9.562;2023-08-08T09:14:57;19.30;96.80
3416;DHT22;1721;51.238;9.562;2023-08-08T09:17:25;19.40;96.20
3416;DHT22;1721;51.238;9.562;2023-08-08T09:19:54;19.10;95.60
3416;DHT22;1721;51.238;9.562;2023-08-08T09:22:20;18.80;95.70
3416;DHT22;1721;51.238;9.562;2023-08-08T09:24:46;18.70;96.10
3416;DHT22;1721;51.238;9.562;2023-08-08T09:27:13;18.40;95.40
3416;DHT22;1721;51.238;9.562;2023-08-08T09:29:39;18.30;96.50
3416;DHT22;1721;51.238;9.562;2023-08-08T09:32:08;18.60;97.40
3416;DHT22;1721;51.238;9.562;2023-08-08T09:34:34;19.00;97.40
3416;DHT22;1721;51.238;9.562;2023-08-08T09:37:00;19.30;96.00
3416;DHT22;1721;51.238;9.562;2023-08-08T09:39:26;19.20;96.00
3416;DHT22;1721;51.238;9.562;2023-08-08T09:41:52;19.20;95.90
3416;DHT22;1721;51.238;9.562;2023-08-08T09:44:17;19.30;94.90
3416;DHT22;1721;51.238;9.562;2023-08-08T09:46:43;19.50;96.30
3416;DHT22;1721;51.238;9.562;2023-08-08T09:49:10;19.60;94.00
3416;DHT22;1721;51.238;9.562;2023-08-08T09:51:36;19.50;94.00
3416;DHT22;1721;51.238;9.562;2023-08-08T09:54:04;19.30;94.30
3416;DHT22;1721;51.238;9.562;2023-08-08T09:56:33;19.30;94.80
3416;DHT22;1721;51.238;9.562;2023-08-08T09:59:00;19.40;94.30
3416;DHT22;1721;51.238;9.562;2023-08-08T10:01:27;19.50;93.30
3416;DHT22;1721;51.238;9.562;2023-08-08T10:03:52;19.40;94.50
3416;DHT22;1721;51.238;9.562;2023-08-08T10:06:18;19.20;94.20
3416;DHT22;1721;51.238;9.562;2023-08-08T10:08:45;19.00;94.20
3416;DHT22;1721;51.238;9.562;2023-08-08T10:11:12;18.80;93.70
3416;DHT22;1721;51.238;9.562;2023-08-08T10:13:38;18.90;94.60
3416;DHT22;1721;51.238;9.562;2023-08-08T10:16:12;19.00;94.40
3416;DHT22;1721;51.238;9.562;2023-08-08T10:18:37;19.10;94.50
3416;DHT22;1721;51.238;9.562;2023-08-08T10:21:06;19.00;94.30
3416;DHT22;1721;51.238;9.562;2023-08-08T10:23:39;19.00;94.10
3416;DHT22;1721;51.238;9.562;2023-08-08T10:26:06;19.10;95.20
3416;DHT22;1721;51.238;9.562;2023-08-08T10:28:52;19.30;93.20
3416;DHT22;1721;51.238;9.562;2023-08-08T10:31:20;19.40;92.90
3416;DHT22;1721;51.238;9.562;2023-08-08T10:33:45;19.30;91.90
3416;DHT22;1721;51.238;9.562;2023-08-08T10:36:11;19.50;92.70
3416;DHT22;1721;51.238;9.562;2023-08-08T10:38:49;19.60;93.00
3416;DHT22;1721;51.238;9.562;2023-08-08T10:41:20;19.60;92.50
3416;DHT22;1721;51.238;9.562;2023-08-08T10:43:55;19.70;92.50
3416;DHT22;1721;51.238;9.562;2023-08-08T10:48:53;19.90;92.00
3416;DHT22;1721;51.238;9.562;2023-08-08T10:51:19;19.80;92.70
3416;DHT22;1721;51.238;9.562;2023-08-08T10:53:45;19.80;92.20
3416;DHT22;1721;51.238;9.562;2023-08-08T10:56:13;19.60;91.80
3416;DHT22;1721;51.238;9.562;2023-08-08T10:58:41;19.50;92.20
3416;DHT22;1721;51.238;9.562;2023-08-08T11:01:07;19.50;91.90
3416;DHT22;1721;51.238;9.562;2023-08-08T11:03:35;19.40;91.90
3416;DHT22;1721;51.238;9.562;2023-08-08T11:06:02;19.30;92.80
3416;DHT22;1721;51.238;9.562;2023-08-08T11:08:30;19.40;92.90
3416;DHT22;1721;51.238;9.562;2023-08-08T11:10:57;19.30;92.70
3416;DHT22;1721;51.238;9.562;2023-08-08T11:13:22;19.10;91.30
3416;DHT22;1721;51.238;9.562;2023-08-08T11:15:48;18.90;92.70
3416;DHT22;1721;51.238;9.562;2023-08-08T11:18:13;18.80;92.80
3416;DHT22;1721;51.238;9.562;2023-08-08T11:20:39;18.60;92.20
3416;DHT22;1721;51.238;9.562;2023-08-08T11:23:05;18.60;93.10
3416;DHT22;1721;51.238;9.562;2023-08-08T11:25:36;18.60;93.30
3416;DHT22;1721;51.238;9.562;2023-08-08T11:28:01;18.50;92.40
3416;DHT22;1721;51.238;9.562;2023-08-08T11:30:29;18.40;92.70
3416;DHT22;1721;51.238;9.562;2023-08-08T11:32:55;18.30;93.40
3416;DHT22;1721;51.238;9.562;2023-08-08T11:35:24;18.40;93.30
3416;DHT22;1721;51.238;9.562;2023-08-08T11:37:51;18.60;93.30
3416;DHT22;1721;51.238;9.562;2023-08-08T11:40:19;18.80;93.90
3416;DHT22;1721;51.238;9.562;2023-08-08T11:42:45;19.00;93.10
3416;DHT22;1721;51.238;9.562;2023-08-08T11:45:12;19.10;93.20
3416;DHT22;1721;51.238;9.562;2023-08-08T11:47:39;19.30;93.10
3416;DHT22;1721;51.238;9.562;2023-08-08T11:50:06;19.30;92.40
3416;DHT22;1721;51.238;9.562;2023-08-08T11:52:33;19.50;92.60
3416;DHT22;1721;51.238;9.562;2023-08-08T11:54:59;19.60;92.10
3416;DHT22;1721;51.238;9.562;2023-08-08T11:57:28;19.50;91.90
3416;DHT22;1721;51.238;9.562;2023-08-08T11:59:54;19.40;91.60
3416;DHT22;1721;51.238;9.562;2023-08-08T12:02:19;19.40;91.60
3416;DHT22;1721;51.238;9.562;2023-08-08T12:04:45;19.20;92.00
3416;DHT22;1721;51.238;9.562;2023-08-08T12:07:11;19.10;92.10
3416;DHT22;1721;51.238;9.562;2023-08-08T12:09:37;18.90;92.10
3416;DHT22;1721;51.238;9.562;2023-08-08T12:12:04;18.70;92.70
3416;DHT22;1721;51.238;9.562;2023-08-08T12:14:35;18.50;93.20
3416;DHT22;1721;51.238;9.562;2023-08-08T12:17:01;18.30;94.30
3416;DHT22;1721;51.238;9.562;2023-08-08T12:19:27;18.10;95.00
3416;DHT22;1721;51.238;9.562;2023-08-08T12:21:54;17.90;95.70
3416;DHT22;1721;51.238;9.562;2023-08-08T12:24:19;17.70;96.20
3416;DHT22;1721;51.238;9.562;2023-08-08T12:26:45;17.60;96.70
3416;DHT22;1721;51.238;9.562;2023-08-08T12:29:11;17.60;96.70
3416;DHT22;1721;51.238;9.562;2023-08-08T12:31:37;17.50;97.10
3416;DHT22;1721;51.238;9.562;2023-08-08T12:34:03;17.40;97.40
3416;DHT22;1721;51.238;9.562;2023-08-08T12:36:29;17.40;97.50
3416;DHT22;1721;51.238;9.562;2023-08-08T12:38:55;17.60;97.90
3416;DHT22;1721;51.238;9.562;2023-08-08T12:41:22;17.90;98.00
3416;DHT22;1721;51.238;9.562;2023-08-08T12:43:47;18.20;98.70
3416;DHT22;1721;51.238;9.562;2023-08-08T12:46:13;18.50;98.30
3416;DHT22;1721;51.238;9.562;2023-08-08T12:48:38;18.90;97.90
3416;DHT22;1721;51.238;9.562;2023-08-08T12:51:04;19.20;97.50
3416;DHT22;1721;51.238;9.562;2023-08-08T12:53:30;19.30;96.80
3416;DHT22;1721;51.238;9.562;2023-08-08T12:55:55;19.30;96.90
3416;DHT22;1721;51.238;9.562;2023-08-08T12:58:21;19.60;96.70
3416;DHT22;1721;51.238;9.562;2023-08-08T13:00:46;19.60;96.40
3416;DHT22;1721;51.238;9.562;2023-08-08T13:03:12;20.00;96.70
3416;DHT22;1721;51.238;9.562;2023-08-08T13:05:38;20.10;95.40
3416;DHT22;1721;51.238;9.562;2023-08-08T13:08:04;20.10;95.40
3416;DHT22;1721;51.238;9.562;2023-08-08T13:10:29;20.30;95.70
3416;DHT22;1721;51.238;9.562;2023-08-08T13:12:56;20.30;95.00
3416;DHT22;1721;51.238;9.562;2023-08-08T13:15:21;20.30;94.50
3416;DHT22;1721;51.238;9.562;2023-08-08T13:17:47;20.30;93.70
3416;DHT22;1721;51.238;9.562;2023-08-08T13:20:13;20.10;93.40
3416;DHT22;1721;51.238;9.562;2023-08-08T13:22:39;20.10;93.70
3416;DHT22;1721;51.238;9.562;2023-08-08T13:25:05;20.00;93.70
3416;DHT22;1721;51.238;9.562;2023-08-08T13:27:31;19.80;93.30
3416;DHT22;1721;51.238;9.562;2023-08-08T13:29:57;19.70;93.60
3416;DHT22;1721;51.238;9.562;2023-08-08T13:32:23;19.80;93.80
3416;DHT22;1721;51.238;9.562;2023-08-08T13:34:48;19.90;93.60
3416;DHT22;1721;51.238;9.562;2023-08-08T13:37:15;19.90;93.70
3416;DHT22;1721;51.238;9.562;2023-08-08T13:39:40;19.90;93.50
3416;DHT22;1721;51.238;9.562;2023-08-08T13:42:07;19.90;93.60
3416;DHT22;1721;51.238;9.562;2023-08-08T13:44:33;19.90;93.50
3416;DHT22;1721;51.238;9.562;2023-08-08T13:46:59;19.80;92.80
3416;DHT22;1721;51.238;9.562;2023-08-08T13:49:25;19.50;92.50
3416;DHT22;1721;51.238;9.562;2023-08-08T13:51:55;19.30;92.50
3416;DHT22;1721;51.238;9.562;2023-08-08T13:54:20;19.30;92.30
3416;DHT22;1721;51.238;9.562;2023-08-08T13:56:46;19.20;92.70
3416;DHT22;1721;51.238;9.562;2023-08-08T13:59:12;19.00;92.70
3416;DHT22;1721;51.238;9.562;2023-08-08T14:01:37;19.00;93.00
3416;DHT22;1721;51.238;9.562;2023-08-08T14:04:03;19.00;93.00
3416;DHT22;1721;51.238;9.562;2023-08-08T14:06:29;19.00;92.50
3416;DHT22;1721;51.238;9.562;2023-08-08T14:08:56;19.10;93.60
3416;DHT22;1721;51.238;9.562;2023-08-08T14:11:22;19.20;92.60
3416;DHT22;1721;51.238;9.562;2023-08-08T14:13:47;19.20;92.40
3416;DHT22;1721;51.238;9.562;2023-08-08T14:16:13;19.00;92.90
3416;DHT22;1721;51.238;9.562;2023-08-08T14:18:38;18.90;92.70
3416;DHT22;1721;51.238;9.562;2023-08-08T14:21:04;18.70;92.30
3416;DHT22;1721;51.238;9.562;2023-08-08T14:23:31;18.40;92.50
3416;DHT22;1721;51.238;9.562;2023-08-08T14:25:56;18.30;93.10
3416;DHT22;1721;51.238;9.562;2023-08-08T14:28:22;18.50;93.60
3416;DHT22;1721;51.238;9.562;2023-08-08T14:30:47;18.60;93.60
3416;DHT22;1721;51.238;9.562;2023-08-08T14:33:14;18.80;93.30
3416;DHT22;1721;51.238;9.562;2023-08-08T14:35:40;18.90;92.80
3416;DHT22;1721;51.238;9.562;2023-08-08T14:38:06;18.90;92.60
3416;DHT22;1721;51.238;9.562;2023-08-08T14:40:31;19.10;92.00
3416;DHT22;1721;51.238;9.562;2023-08-08T14:42:57;19.00;91.80
3416;DHT22;1721;51.238;9.562;2023-08-08T14:45:23;19.00;92.30
3416;DHT22;1721;51.238;9.562;2023-08-08T14:47:49;19.00;92.00
3416;DHT22;1721;51.238;9.562;2023-08-08T14:50:16;18.90;92.20
3416;DHT22;1721;51.238;9.562;2023-08-08T14:52:41;18.70;92.70
3416;DHT22;1721;51.238;9.562;2023-08-08T14:55:07;18.70;93.20
3416;DHT22;1721;51.238;9.562;2023-08-08T14:57:33;18.70;93.30
3416;DHT22;1721;51.238;9.562;2023-08-08T14:59:59;18.90;93.30
3416;DHT22;1721;51.238;9.562;2023-08-08T15:02:26;19.00;93.00
3416;DHT22;1721;51.238;9.562;2023-08-08T15:04:51;19.00;93.00
3416;DHT22;1721;51.238;9.562;2023-08-08T15:07:17;19.20;92.80
3416;DHT22;1721;51.238;9.562;2023-08-08T15:09:43;19.10;92.80
3416;DHT22;1721;51.238;9.562;2023-08-08T15:12:08;19.10;93.10
3416;DHT22;1721;51.238;9.562;2023-08-08T15:14:34;19.00;92.80
3416;DHT22;1721;51.238;9.562;2023-08-08T15:17:00;18.80;92.50
3416;DHT22;1721;51.238;9.562;2023-08-08T15:19:25;18.50;92.90
3416;DHT22;1721;51.238;9.562;2023-08-08T15:21:52;18.30;93.60
3416;DHT22;1721;51.238;9.562;2023-08-08T15:24:17;18.00;93.90
3416;DHT22;1721;51.238;9.562;2023-08-08T15:26:43;17.80;93.80
3416;DHT22;1721;51.238;9.562;2023-08-08T15:29:08;17.80;94.60
3416;DHT22;1721;51.238;9.562;2023-08-08T15:31:34;17.90;94.70
3416;DHT22;1721;51.238;9.562;2023-08-08T15:34:00;17.80;94.60
3416;DHT22;1721;51.238;9.562;2023-08-08T15:36:26;17.80;94.80
3416;DHT22;1721;51.238;9.562;2023-08-08T15:38:51;17.80;94.70
3416;DHT22;1721;51.238;9.562;2023-08-08T15:41:17;17.90;94.80
3416;DHT22;1721;51.238;9.562;2023-08-08T15:43:43;18.00;94.80
3416;DHT22;1721;51.238;9.562;2023-08-08T15:46:08;18.10;94.70
3416;DHT22;1721;51.238;9.562;2023-08-08T15:48:34;18.00;94.70
3416;DHT22;1721;51.238;9.562;2023-08-08T15:50:59;18.00;95.10
3416;DHT22;1721;51.238;9.562;2023-08-08T15:53:25;18.10;95.00
3416;DHT22;1721;51.238;9.562;2023-08-08T15:55:53;18.10;94.60
3416;DHT22;1721;51.238;9.562;2023-08-08T15:58:18;18.20;94.50
3416;DHT22;1721;51.238;9.562;2023-08-08T16:00:44;18.10;95.00